Terminal Aerodrome Forecast
Issued by NWS Charleston, WV

Current Version | Previous Version | Graphics & Text | Print | Product List | Glossary On
Versions: 1 2 3 4 5 6 7 8 9 10 11 12 13 14 15 16 17 18 19 20 21 22 23 24 25 26
000
FTUS41 KRLX 221800 AAA
TAFBKW
TAF AMD
KBKW 221847Z 2219/2318 33008KT P6SM BKN025
     FM222000 33007KT P6SM SCT025
     FM230200 VRB03KT P6SM FEW025
     FM231400 00000KT P6SM SKC=

USA.gov is the U.S. government's official web portal to all federal, state and local government web resources and services.